sensor_id;sensor_type;location;lat;lon;timestamp;pressure;altitude;pressure_sealevel;temperature;humidity
73383;BME280;61600;48.126;11.542;2022-07-19T00:01:35;96126.03;;;20.78;62.97
73383;BME280;61600;48.126;11.542;2022-07-19T00:04:01;96127.59;;;20.67;58.15
73383;BME280;61600;48.126;11.542;2022-07-19T00:06:27;96127.13;;;20.65;59.96
73383;BME280;61600;48.126;11.542;2022-07-19T00:08:53;96125.22;;;20.57;54.66
73383;BME280;61600;48.126;11.542;2022-07-19T00:11:18;96117.63;;;20.54;56.96
73383;BME280;61600;48.126;11.542;2022-07-19T00:13:44;96115.53;;;20.51;54.67
73383;BME280;61600;48.126;11.542;2022-07-19T00:16:10;96111.81;;;20.47;54.26
73383;BME280;61600;48.126;11.542;2022-07-19T00:18:36;96108.38;;;20.50;51.31
73383;BME280;61600;48.126;11.542;2022-07-19T00:21:02;96113.91;;;20.50;50.26
73383;BME280;61600;48.126;11.542;2022-07-19T00:23:28;96116.00;;;20.53;50.12
73383;BME280;61600;48.126;11.542;2022-07-19T00:25:53;96112.28;;;20.49;49.48
73383;BME280;61600;48.126;11.542;2022-07-19T00:28:19;96113.59;;;20.51;50.29
73383;BME280;61600;48.126;11.542;2022-07-19T00:30:45;96112.28;;;20.49;50.57
73383;BME280;61600;48.126;11.542;2022-07-19T00:33:10;96115.19;;;20.52;52.72
73383;BME280;61600;48.126;11.542;2022-07-19T00:35:39;96114.38;;;20.52;52.83
73383;BME280;61600;48.126;11.542;2022-07-19T00:38:07;96104.94;;;20.53;53.76
73383;BME280;61600;48.126;11.542;2022-07-19T00:40:33;96115.31;;;20.56;54.69
73383;BME280;61600;48.126;11.542;2022-07-19T00:42:59;96114.03;;;20.53;53.76
73383;BME280;61600;48.126;11.542;2022-07-19T00:45:24;96113.72;;;20.55;51.11
73383;BME280;61600;48.126;11.542;2022-07-19T00:47:50;96110.94;;;20.55;51.25
73383;BME280;61600;48.126;11.542;2022-07-19T00:50:15;96111.41;;;20.57;49.81
73383;BME280;61600;48.126;11.542;2022-07-19T00:52:42;96107.38;;;20.54;49.81
73383;BME280;61600;48.126;11.542;2022-07-19T00:55:10;96113.84;;;20.58;51.44
73383;BME280;61600;48.126;11.542;2022-07-19T00:57:37;96111.88;;;20.59;52.04
73383;BME280;61600;48.126;11.542;2022-07-19T01:00:07;96108.47;;;20.62;54.08
73383;BME280;61600;48.126;11.542;2022-07-19T01:02:34;96114.00;;;20.62;53.62
73383;BME280;61600;48.126;11.542;2022-07-19T01:05:00;96105.69;;;20.62;54.07
73383;BME280;61600;48.126;11.542;2022-07-19T01:07:26;96111.22;;;20.62;53.77
73383;BME280;61600;48.126;11.542;2022-07-19T01:09:52;96102.44;;;20.60;53.12
73383;BME280;61600;48.126;11.542;2022-07-19T01:12:20;96105.69;;;20.62;52.25
73383;BME280;61600;48.126;11.542;2022-07-19T01:14:48;96103.59;;;20.59;50.81
73383;BME280;61600;48.126;11.542;2022-07-19T01:17:14;96109.47;;;20.57;52.37
73383;BME280;61600;48.126;11.542;2022-07-19T01:19:42;96105.88;;;20.57;51.32
73383;BME280;61600;48.126;11.542;2022-07-19T01:22:08;96103.13;;;20.57;52.71
73383;BME280;61600;48.126;11.542;2022-07-19T01:24:34;96105.44;;;20.55;52.85
73383;BME280;61600;48.126;11.542;2022-07-19T01:27:00;96106.88;;;20.52;53.63
73383;BME280;61600;48.126;11.542;2022-07-19T01:29:26;96103.81;;;20.54;51.96
73383;BME280;61600;48.126;11.542;2022-07-19T01:31:52;96108.84;;;20.52;53.27
73383;BME280;61600;48.126;11.542;2022-07-19T01:34:17;96107.25;;;20.51;51.81
73383;BME280;61600;48.126;11.542;2022-07-19T01:36:43;96108.84;;;20.52;52.72
73383;BME280;61600;48.126;11.542;2022-07-19T01:39:09;96108.84;;;20.52;51.12
73383;BME280;61600;48.126;11.542;2022-07-19T01:41:35;96103.81;;;20.54;51.66
73383;BME280;61600;48.126;11.542;2022-07-19T01:44:00;96114.63;;;20.59;51.23
73383;BME280;61600;48.126;11.542;2022-07-19T01:46:26;96113.50;;;20.60;50.83
73383;BME280;61600;48.126;11.542;2022-07-19T01:48:52;96114.50;;;20.55;50.85
73383;BME280;61600;48.126;11.542;2022-07-19T01:51:18;96107.69;;;20.53;50.88
73383;BME280;61600;48.126;11.542;2022-07-19T01:53:43;96109.53;;;20.49;51.65
73383;BME280;61600;48.126;11.542;2022-07-19T01:56:09;96103.53;;;20.47;51.00
73383;BME280;61600;48.126;11.542;2022-07-19T01:58:35;96101.34;;;20.52;51.28
73383;BME280;61600;48.126;11.542;2022-07-19T02:01:00;96110.69;;;20.48;51.36
73383;BME280;61600;48.126;11.542;2022-07-19T02:03:26;96102.91;;;20.41;51.69
73383;BME280;61600;48.126;11.542;2022-07-19T02:05:51;96101.16;;;20.36;52.40
73383;BME280;61600;48.126;11.542;2022-07-19T02:08:17;96101.41;;;20.23;51.68
73383;BME280;61600;48.126;11.542;2022-07-19T02:10:42;96086.16;;;20.17;52.10
73383;BME280;61600;48.126;11.542;2022-07-19T02:13:08;96098.09;;;20.09;52.05
73383;BME280;61600;48.126;11.542;2022-07-19T02:15:34;96088.56;;;19.98;52.51
73383;BME280;61600;48.126;11.542;2022-07-19T02:18:00;96091.31;;;19.98;52.91
73383;BME280;61600;48.126;11.542;2022-07-19T02:20:26;96089.72;;;19.88;52.82
73383;BME280;61600;48.126;11.542;2022-07-19T02:22:52;96090.41;;;19.85;52.77
73383;BME280;61600;48.126;11.542;2022-07-19T02:25:18;96086.22;;;19.79;53.53
73383;BME280;61600;48.126;11.542;2022-07-19T02:27:44;96086.53;;;19.77;53.58
73383;BME280;61600;48.126;11.542;2022-07-19T02:30:10;96079.47;;;19.68;53.43
73383;BME280;61600;48.126;11.542;2022-07-19T02:32:37;96084.84;;;19.64;53.60
73383;BME280;61600;48.126;11.542;2022-07-19T02:35:05;96076.56;;;19.64;53.48
73383;BME280;61600;48.126;11.542;2022-07-19T02:37:31;96078.19;;;19.65;53.56
73383;BME280;61600;48.126;11.542;2022-07-19T02:39:57;96070.06;;;19.60;53.50
73383;BME280;61600;48.126;11.542;2022-07-19T02:42:23;96079.41;;;19.47;54.26
73383;BME280;61600;48.126;11.542;2022-07-19T02:44:49;96075.34;;;19.44;54.43
73383;BME280;61600;48.126;11.542;2022-07-19T02:47:15;96072.22;;;19.55;54.14
73383;BME280;61600;48.126;11.542;2022-07-19T02:49:40;96073.66;;;19.61;54.12
73383;BME280;61600;48.126;11.542;2022-07-19T02:52:06;96068.91;;;19.70;53.67
73383;BME280;61600;48.126;11.542;2022-07-19T02:54:32;96070.78;;;19.78;53.79
73383;BME280;61600;48.126;11.542;2022-07-19T02:56:58;96070.78;;;19.78;54.19
73383;BME280;61600;48.126;11.542;2022-07-19T02:59:24;96063.00;;;19.80;54.00
73383;BME280;61600;48.126;11.542;2022-07-19T03:01:50;96066.22;;;19.82;53.33
73383;BME280;61600;48.126;11.542;2022-07-19T03:04:15;96068.66;;;19.83;53.71
73383;BME280;61600;48.126;11.542;2022-07-19T03:06:41;96069.66;;;19.79;53.46
73383;BME280;61600;48.126;11.542;2022-07-19T03:09:07;96074.03;;;19.80;53.11
73383;BME280;61600;48.126;11.542;2022-07-19T03:11:32;96072.41;;;19.79;53.87
73383;BME280;61600;48.126;11.542;2022-07-19T03:13:58;96075.03;;;19.75;53.53
73383;BME280;61600;48.126;11.542;2022-07-19T03:16:24;96084.97;;;19.68;52.90
73383;BME280;61600;48.126;11.542;2022-07-19T03:18:49;96080.28;;;19.68;53.35
73383;BME280;61600;48.126;11.542;2022-07-19T03:21:15;96078.69;;;19.59;54.14
73383;BME280;61600;48.126;11.542;2022-07-19T03:23:40;96080.81;;;19.53;54.67
73383;BME280;61600;48.126;11.542;2022-07-19T03:26:06;96087.34;;;19.49;54.79
73383;BME280;61600;48.126;11.542;2022-07-19T03:28:33;96076.31;;;19.40;54.75
73383;BME280;61600;48.126;11.542;2022-07-19T03:30:59;96074.88;;;19.34;55.11
73383;BME280;61600;48.126;11.542;2022-07-19T03:33:25;96073.25;;;19.33;55.02
73383;BME280;61600;48.126;11.542;2022-07-19T03:35:50;96073.63;;;19.23;54.91
73383;BME280;61600;48.126;11.542;2022-07-19T03:38:16;96076.75;;;19.13;55.81
73383;BME280;61600;48.126;11.542;2022-07-19T03:40:42;96075.97;;;18.95;55.32
73383;BME280;61600;48.126;11.542;2022-07-19T03:43:08;96081.78;;;18.93;56.01
73383;BME280;61600;48.126;11.542;2022-07-19T03:45:34;96075.50;;;18.84;56.03
73383;BME280;61600;48.126;11.542;2022-07-19T03:47:59;96079.69;;;18.90;58.78
73383;BME280;61600;48.126;11.542;2022-07-19T03:50:25;96073.06;;;18.91;59.13
73383;BME280;61600;48.126;11.542;2022-07-19T03:52:51;96066.56;;;18.96;58.76
73383;BME280;61600;48.126;11.542;2022-07-19T03:55:16;96067.69;;;18.95;59.52
73383;BME280;61600;48.126;11.542;2022-07-19T03:57:42;96068.31;;;19.01;59.65
73383;BME280;61600;48.126;11.542;2022-07-19T04:00:08;96072.88;;;18.96;55.38
73383;BME280;61600;48.126;11.542;2022-07-19T04:02:35;96076.75;;;19.04;59.01
73383;BME280;61600;48.126;11.542;2022-07-19T04:05:01;96082.75;;;19.06;56.47
73383;BME280;61600;48.126;11.542;2022-07-19T04:07:26;96077.72;;;19.08;56.23
73383;BME280;61600;48.126;11.542;2022-07-19T04:09:52;96074.28;;;19.11;59.32
73383;BME280;61600;48.126;11.542;2022-07-19T04:12:18;96080.97;;;19.10;56.92
73383;BME280;61600;48.126;11.542;2022-07-19T04:14:44;96081.75;;;19.11;55.28
73383;BME280;61600;48.126;11.542;2022-07-19T04:17:10;96081.59;;;19.16;58.54
73383;BME280;61600;48.126;11.542;2022-07-19T04:19:36;96080.13;;;19.18;57.50
73383;BME280;61600;48.126;11.542;2022-07-19T04:22:02;96075.41;;;19.19;57.16
73383;BME280;61600;48.126;11.542;2022-07-19T04:24:28;96084.94;;;19.38;54.46
73383;BME280;61600;48.126;11.542;2022-07-19T04:26:54;96083.28;;;19.46;53.92
73383;BME280;61600;48.126;11.542;2022-07-19T04:29:19;96068.56;;;19.42;54.04
73383;BME280;61600;48.126;11.542;2022-07-19T04:31:45;96076.16;;;19.36;53.64
73383;BME280;61600;48.126;11.542;2022-07-19T04:34:10;96076.81;;;19.33;55.02
73383;BME280;61600;48.126;11.542;2022-07-19T04:36:36;96076.16;;;19.36;53.38
73383;BME280;61600;48.126;11.542;2022-07-19T04:39:02;96072.59;;;19.44;55.07
73383;BME280;61600;48.126;11.542;2022-07-19T04:41:27;96072.69;;;19.57;56.04
73383;BME280;61600;48.126;11.542;2022-07-19T04:43:53;96068.81;;;19.58;53.76
73383;BME280;61600;48.126;11.542;2022-07-19T04:46:18;96072.38;;;19.58;53.08
73383;BME280;61600;48.126;11.542;2022-07-19T04:48:44;96069.28;;;19.60;52.78
73383;BME280;61600;48.126;11.542;2022-07-19T04:51:10;96074.47;;;19.61;52.41
73383;BME280;61600;48.126;11.542;2022-07-19T04:53:35;96066.72;;;19.55;52.30
73383;BME280;61600;48.126;11.542;2022-07-19T04:56:01;96076.56;;;19.64;52.02
73383;BME280;61600;48.126;11.542;2022-07-19T04:58:27;96081.41;;;19.67;52.58
73383;BME280;61600;48.126;11.542;2022-07-19T05:00:52;96077.84;;;19.67;52.61
73383;BME280;61600;48.126;11.542;2022-07-19T05:03:18;96078.84;;;19.62;53.13
73383;BME280;61600;48.126;11.542;2022-07-19T05:05:43;96072.31;;;19.67;52.74
73383;BME280;61600;48.126;11.542;2022-07-19T05:08:09;96073.78;;;19.64;53.93
73383;BME280;61600;48.126;11.542;2022-07-19T05:10:36;96079.13;;;19.69;52.48
73383;BME280;61600;48.126;11.542;2022-07-19T05:13:01;96075.72;;;19.72;52.59
73383;BME280;61600;48.126;11.542;2022-07-19T05:15:27;96082.38;;;19.71;51.29
73383;BME280;61600;48.126;11.542;2022-07-19T05:17:53;96084.28;;;19.79;50.78
73383;BME280;61600;48.126;11.542;2022-07-19T05:20:18;96091.06;;;19.82;50.25
73383;BME280;61600;48.126;11.542;2022-07-19T05:22:44;96078.06;;;19.91;50.67
73383;BME280;61600;48.126;11.542;2022-07-19T05:25:13;96083.84;;;19.98;49.46
73383;BME280;61600;48.126;11.542;2022-07-19T05:27:39;96078.75;;;20.09;52.22
73383;BME280;61600;48.126;11.542;2022-07-19T05:30:05;96082.03;;;20.31;51.59
73383;BME280;61600;48.126;11.542;2022-07-19T05:32:32;96079.66;;;20.42;48.53
73383;BME280;61600;48.126;11.542;2022-07-19T05:34:57;96079.94;;;20.49;49.70
73383;BME280;61600;48.126;11.542;2022-07-19T05:37:23;96083.56;;;20.62;47.70
73383;BME280;61600;48.126;11.542;2022-07-19T05:39:49;96080.84;;;20.74;48.76
73383;BME280;61600;48.126;11.542;2022-07-19T05:42:15;96069.16;;;20.89;49.15
73383;BME280;61600;48.126;11.542;2022-07-19T05:44:40;96076.53;;;20.97;47.48
73383;BME280;61600;48.126;11.542;2022-07-19T05:47:06;96076.59;;;21.09;46.69
73383;BME280;61600;48.126;11.542;2022-07-19T05:49:32;96078.16;;;21.19;46.21
73383;BME280;61600;48.126;11.542;2022-07-19T05:51:58;96073.66;;;21.26;46.69
73383;BME280;61600;48.126;11.542;2022-07-19T05:54:23;96071.63;;;21.35;46.33
73383;BME280;61600;48.126;11.542;2022-07-19T05:56:50;96069.53;;;21.32;45.78
73383;BME280;61600;48.126;11.542;2022-07-19T05:59:15;96072.53;;;21.39;46.53
73383;BME280;61600;48.126;11.542;2022-07-19T06:01:41;96063.91;;;21.41;46.74
73383;BME280;61600;48.126;11.542;2022-07-19T06:04:07;96071.38;;;21.40;45.43
73383;BME280;61600;48.126;11.542;2022-07-19T06:06:34;96072.31;;;21.45;46.43
73383;BME280;61600;48.126;11.542;2022-07-19T06:09:01;96070.47;;;21.49;46.68
73383;BME280;61600;48.126;11.542;2022-07-19T06:11:27;96072.22;;;21.53;46.33
73383;BME280;61600;48.126;11.542;2022-07-19T06:13:53;96071.16;;;21.58;46.86
73383;BME280;61600;48.126;11.542;2022-07-19T06:16:18;96071.78;;;21.63;46.12
73383;BME280;61600;48.126;11.542;2022-07-19T06:18:44;96061.25;;;21.69;46.09
73383;BME280;61600;48.126;11.542;2022-07-19T06:21:12;96078.56;;;21.78;45.62
73383;BME280;61600;48.126;11.542;2022-07-19T06:23:40;96071.41;;;21.89;45.20
73383;BME280;61600;48.126;11.542;2022-07-19T06:26:10;96068.63;;;21.89;44.95
73383;BME280;61600;48.126;11.542;2022-07-19T06:28:37;96075.03;;;22.02;44.69
73383;BME280;61600;48.126;11.542;2022-07-19T06:31:02;96069.72;;;22.09;44.83
73383;BME280;61600;48.126;11.542;2022-07-19T06:33:28;96074.66;;;22.15;44.63
73383;BME280;61600;48.126;11.542;2022-07-19T06:35:54;96072.81;;;22.19;44.62
73383;BME280;61600;48.126;11.542;2022-07-19T06:38:20;96079.94;;;22.32;44.98
73383;BME280;61600;48.126;11.542;2022-07-19T06:40:46;96073.06;;;22.54;44.39
73383;BME280;61600;48.126;11.542;2022-07-19T06:43:12;96069.88;;;22.80;43.18
73383;BME280;61600;48.126;11.542;2022-07-19T06:45:38;96080.84;;;22.88;43.04
73383;BME280;61600;48.126;11.542;2022-07-19T06:48:04;96069.22;;;22.99;42.98
73383;BME280;61600;48.126;11.542;2022-07-19T06:50:30;96066.31;;;23.07;42.77
73383;BME280;61600;48.126;11.542;2022-07-19T06:52:56;96065.16;;;23.24;42.22
73383;BME280;61600;48.126;11.542;2022-07-19T06:55:22;96062.75;;;23.38;41.83
73383;BME280;61600;48.126;11.542;2022-07-19T06:57:48;96062.63;;;23.47;41.71
73383;BME280;61600;48.126;11.542;2022-07-19T07:00:14;96063.25;;;23.56;41.62
73383;BME280;61600;48.126;11.542;2022-07-19T07:02:40;96065.22;;;23.55;41.42
73383;BME280;61600;48.126;11.542;2022-07-19T07:05:08;96067.44;;;23.65;41.39
73383;BME280;61600;48.126;11.542;2022-07-19T07:07:35;96056.34;;;23.65;41.04
73383;BME280;61600;48.126;11.542;2022-07-19T07:10:01;96071.69;;;23.75;40.78
73383;BME280;61600;48.126;11.542;2022-07-19T07:12:28;96058.66;;;23.79;40.81
73383;BME280;61600;48.126;11.542;2022-07-19T07:14:54;96070.69;;;23.83;41.18
73383;BME280;61600;48.126;11.542;2022-07-19T07:17:21;96067.91;;;23.83;41.03
73383;BME280;61600;48.126;11.542;2022-07-19T07:19:47;96071.91;;;23.85;40.88
73383;BME280;61600;48.126;11.542;2022-07-19T07:22:13;96060.47;;;23.87;41.16
73383;BME280;61600;48.126;11.542;2022-07-19T07:24:39;96069.94;;;24.02;40.87
73383;BME280;61600;48.126;11.542;2022-07-19T07:27:05;96062.13;;;24.07;40.83
73383;BME280;61600;48.126;11.542;2022-07-19T07:29:30;96060.63;;;24.10;40.21
73383;BME280;61600;48.126;11.542;2022-07-19T07:31:56;96063.94;;;24.15;40.01
73383;BME280;61600;48.126;11.542;2022-07-19T07:34:22;96055.94;;;24.14;40.88
73383;BME280;61600;48.126;11.542;2022-07-19T07:36:48;96060.50;;;24.22;40.36
73383;BME280;61600;48.126;11.542;2022-07-19T07:39:14;96059.28;;;24.19;40.58
73383;BME280;61600;48.126;11.542;2022-07-19T07:41:39;96056.66;;;24.26;40.82
73383;BME280;61600;48.126;11.542;2022-07-19T07:44:05;96053.47;;;24.44;40.14
73383;BME280;61600;48.126;11.542;2022-07-19T07:46:31;96047.16;;;24.47;40.13
73383;BME280;61600;48.126;11.542;2022-07-19T07:48:57;96050.31;;;24.45;39.92
73383;BME280;61600;48.126;11.542;2022-07-19T07:51:23;96056.41;;;24.51;39.99
73383;BME280;61600;48.126;11.542;2022-07-19T07:53:49;96048.47;;;24.53;40.41
73383;BME280;61600;48.126;11.542;2022-07-19T07:56:15;96041.91;;;24.61;39.67
73383;BME280;61600;48.126;11.542;2022-07-19T07:58:41;96055.97;;;24.68;39.38
73383;BME280;61600;48.126;11.542;2022-07-19T08:01:06;96049.38;;;24.76;39.02
73383;BME280;61600;48.126;11.542;2022-07-19T08:03:32;96045.59;;;24.84;38.20
73383;BME280;61600;48.126;11.542;2022-07-19T08:05:58;96051.69;;;24.90;37.09
73383;BME280;61600;48.126;11.542;2022-07-19T08:08:25;96052.16;;;24.95;37.38
73383;BME280;61600;48.126;11.542;2022-07-19T08:10:56;96051.88;;;25.00;37.73
73383;BME280;61600;48.126;11.542;2022-07-19T08:13:23;96040.63;;;25.16;36.88
73383;BME280;61600;48.126;11.542;2022-07-19T08:15:49;96046.78;;;25.25;37.28
73383;BME280;61600;48.126;11.542;2022-07-19T08:18:15;96040.06;;;25.26;37.04
73383;BME280;61600;48.126;11.542;2022-07-19T08:20:41;96039.75;;;25.31;36.83
73383;BME280;61600;48.126;11.542;2022-07-19T08:23:07;96037.88;;;25.39;36.02
73383;BME280;61600;48.126;11.542;2022-07-19T08:25:33;96031.63;;;25.45;35.16
73383;BME280;61600;48.126;11.542;2022-07-19T08:28:00;96033.03;;;25.55;34.52
73383;BME280;61600;48.126;11.542;2022-07-19T08:30:27;96033.91;;;25.59;34.32
73383;BME280;61600;48.126;11.542;2022-07-19T08:32:52;96035.28;;;25.68;33.42
73383;BME280;61600;48.126;11.542;2022-07-19T08:35:18;96034.47;;;25.68;32.86
73383;BME280;61600;48.126;11.542;2022-07-19T08:37:44;96036.09;;;25.72;33.26
73383;BME280;61600;48.126;11.542;2022-07-19T08:40:10;96035.81;;;25.77;33.15
73383;BME280;61600;48.126;11.542;2022-07-19T08:42:36;96037.59;;;25.89;33.06
73383;BME280;61600;48.126;11.542;2022-07-19T08:45:07;96026.91;;;25.95;33.97
73383;BME280;61600;48.126;11.542;2022-07-19T08:47:33;96027.34;;;25.97;33.96
73383;BME280;61600;48.126;11.542;2022-07-19T08:50:00;96028.59;;;25.99;34.59
73383;BME280;61600;48.126;11.542;2022-07-19T08:52:26;96027.09;;;26.05;33.46
73383;BME280;61600;48.126;11.542;2022-07-19T08:54:54;96025.25;;;26.16;33.22
73383;BME280;61600;48.126;11.542;2022-07-19T08:57:19;96029.34;;;26.22;33.37
73383;BME280;61600;48.126;11.542;2022-07-19T09:00:05;96017.94;;;26.31;32.54
73383;BME280;61600;48.126;11.542;2022-07-19T09:02:30;96025.75;;;26.48;31.04
73383;BME280;61600;48.126;11.542;2022-07-19T09:05:01;96024.94;;;26.48;32.53
73383;BME280;61600;48.126;11.542;2022-07-19T09:07:26;96013.81;;;26.51;30.97
73383;BME280;61600;48.126;11.542;2022-07-19T09:09:52;96014.28;;;26.57;30.94
73383;BME280;61600;48.126;11.542;2022-07-19T09:12:57;96023.16;;;26.62;30.69
73383;BME280;61600;48.126;11.542;2022-07-19T09:15:35;96019.25;;;27.00;29.74
73383;BME280;61600;48.126;11.542;2022-07-19T09:18:15;96019.25;;;27.00;28.86
73383;BME280;61600;48.126;11.542;2022-07-19T09:20:42;96015.63;;;27.00;29.49
73383;BME280;61600;48.126;11.542;2022-07-19T09:23:09;96010.53;;;27.05;29.56
73383;BME280;61600;48.126;11.542;2022-07-19T09:25:52;96017.38;;;27.11;29.15
73383;BME280;61600;48.126;11.542;2022-07-19T09:28:20;96014.66;;;27.18;28.68
73383;BME280;61600;48.126;11.542;2022-07-19T09:30:51;96007.13;;;27.22;27.96
73383;BME280;61600;48.126;11.542;2022-07-19T09:33:19;96014.34;;;27.27;27.97
73383;BME280;61600;48.126;11.542;2022-07-19T09:38:17;96009.25;;;27.36;28.11
73383;BME280;61600;48.126;11.542;2022-07-19T09:40:43;96004.53;;;27.44;28.79
73383;BME280;61600;48.126;11.542;2022-07-19T09:43:09;96003.81;;;27.50;28.41
73383;BME280;61600;48.126;11.542;2022-07-19T09:45:35;95999.09;;;27.58;28.11
73383;BME280;61600;48.126;11.542;2022-07-19T09:48:01;96003.94;;;27.64;28.71
73383;BME280;61600;48.126;11.542;2022-07-19T09:50:29;96001.25;;;27.75;27.90
73383;BME280;61600;48.126;11.542;2022-07-19T09:52:58;95996.53;;;27.86;28.50
73383;BME280;61600;48.126;11.542;2022-07-19T09:55:27;95999.75;;;27.88;28.10
73383;BME280;61600;48.126;11.542;2022-07-19T09:57:54;95984.97;;;27.91;28.35
73383;BME280;61600;48.126;11.542;2022-07-19T10:00:23;95989.47;;;28.03;27.78
73383;BME280;61600;48.126;11.542;2022-07-19T10:02:57;95997.53;;;28.11;26.99
73383;BME280;61600;48.126;11.542;2022-07-19T10:05:24;95987.16;;;28.15;27.56
73383;BME280;61600;48.126;11.542;2022-07-19T10:07:50;95982.41;;;28.23;26.86
73383;BME280;61600;48.126;11.542;2022-07-19T10:10:18;95976.50;;;28.32;27.35
73383;BME280;61600;48.126;11.542;2022-07-19T10:12:46;95976.97;;;28.48;26.83
73383;BME280;61600;48.126;11.542;2022-07-19T10:15:14;95973.78;;;28.53;26.97
73383;BME280;61600;48.126;11.542;2022-07-19T10:17:56;95970.63;;;28.65;26.47
73383;BME280;61600;48.126;11.542;2022-07-19T10:20:25;95965.50;;;28.70;26.97
73383;BME280;61600;48.126;11.542;2022-07-19T10:22:52;95961.13;;;28.80;27.01
73383;BME280;61600;48.126;11.542;2022-07-19T10:25:18;95969.19;;;28.96;27.51
73383;BME280;61600;48.126;11.542;2022-07-19T10:27:50;95966.00;;;29.04;27.65
73383;BME280;61600;48.126;11.542;2022-07-19T10:30:18;95966.03;;;29.18;25.49
73383;BME280;61600;48.126;11.542;2022-07-19T10:32:46;95964.88;;;29.30;26.02
73383;BME280;61600;48.126;11.542;2022-07-19T10:37:56;95958.50;;;29.58;25.78
73383;BME280;61600;48.126;11.542;2022-07-19T10:40:45;95966.09;;;29.75;26.41
73383;BME280;61600;48.126;11.542;2022-07-19T10:43:17;95958.09;;;29.88;25.80
73383;BME280;61600;48.126;11.542;2022-07-19T10:48:40;95955.25;;;30.16;24.86
73383;BME280;61600;48.126;11.542;2022-07-19T10:51:09;95955.63;;;30.29;24.52
73383;BME280;61600;48.126;11.542;2022-07-19T10:56:17;95962.03;;;30.50;23.74
73383;BME280;61600;48.126;11.542;2022-07-19T10:58:47;95957.56;;;30.63;24.67
73383;BME280;61600;48.126;11.542;2022-07-19T11:01:15;95961.13;;;30.75;23.86
73383;BME280;61600;48.126;11.542;2022-07-19T11:03:41;95952.66;;;30.82;23.52
73383;BME280;61600;48.126;11.542;2022-07-19T11:06:07;95954.19;;;31.00;22.95
73383;BME280;61600;48.126;11.542;2022-07-19T11:08:41;95941.66;;;31.15;23.29
73383;BME280;61600;48.126;11.542;2022-07-19T11:11:15;95940.34;;;31.31;23.14
73383;BME280;61600;48.126;11.542;2022-07-19T11:13:50;95936.22;;;31.42;22.64
73383;BME280;61600;48.126;11.542;2022-07-19T11:16:16;95941.38;;;31.58;22.15
73383;BME280;61600;48.126;11.542;2022-07-19T11:18:42;95932.88;;;31.65;22.03
73383;BME280;61600;48.126;11.542;2022-07-19T11:21:10;95931.69;;;31.66;21.17
73383;BME280;61600;48.126;11.542;2022-07-19T11:23:38;95927.09;;;31.83;21.81
73383;BME280;61600;48.126;11.542;2022-07-19T11:26:16;95927.84;;;31.90;21.13
73383;BME280;61600;48.126;11.542;2022-07-19T11:28:44;95920.44;;;32.07;21.85
73383;BME280;61600;48.126;11.542;2022-07-19T11:31:15;95917.56;;;32.14;21.38
73383;BME280;61600;48.126;11.542;2022-07-19T11:33:42;95917.09;;;32.23;20.37
73383;BME280;61600;48.126;11.542;2022-07-19T11:36:08;95922.25;;;32.28;20.19
73383;BME280;61600;48.126;11.542;2022-07-19T11:38:35;95910.50;;;32.36;20.77
73383;BME280;61600;48.126;11.542;2022-07-19T11:41:01;95907.22;;;32.38;20.71
73383;BME280;61600;48.126;11.542;2022-07-19T11:43:28;95905.44;;;32.54;21.15
73383;BME280;61600;48.126;11.542;2022-07-19T11:45:54;95897.19;;;32.71;20.15
73383;BME280;61600;48.126;11.542;2022-07-19T11:48:28;95901.03;;;32.84;19.74
73383;BME280;61600;48.126;11.542;2022-07-19T11:51:20;95888.03;;;32.93;20.30
73383;BME280;61600;48.126;11.542;2022-07-19T11:53:49;95893.13;;;33.02;20.88
73383;BME280;61600;48.126;11.542;2022-07-19T11:56:21;95896.59;;;33.17;19.96
73383;BME280;61600;48.126;11.542;2022-07-19T11:58:48;95884.81;;;33.22;20.48
73383;BME280;61600;48.126;11.542;2022-07-19T12:01:14;95887.72;;;33.41;20.17
73383;BME280;61600;48.126;11.542;2022-07-19T12:03:40;95889.53;;;33.55;20.37
73383;BME280;61600;48.126;11.542;2022-07-19T12:06:08;95879.56;;;33.74;19.41
73383;BME280;61600;48.126;11.542;2022-07-19T12:08:42;95871.44;;;33.76;19.43
73383;BME280;61600;48.126;11.542;2022-07-19T12:11:20;95878.06;;;33.89;19.13
73383;BME280;61600;48.126;11.542;2022-07-19T12:13:47;95877.31;;;34.08;18.59
73383;BME280;61600;48.126;11.542;2022-07-19T12:16:14;95879.81;;;34.26;19.28
73383;BME280;61600;48.126;11.542;2022-07-19T12:31:47;95851.53;;;35.21;19.11
73383;BME280;61600;48.126;11.542;2022-07-19T12:34:14;95856.41;;;35.36;18.68
73383;BME280;61600;48.126;11.542;2022-07-19T12:36:40;95864.13;;;35.52;18.68
73383;BME280;61600;48.126;11.542;2022-07-19T12:39:22;95847.22;;;35.65;18.69
73383;BME280;61600;48.126;11.542;2022-07-19T12:42:01;95851.97;;;36.00;17.88
73383;BME280;61600;48.126;11.542;2022-07-19T12:44:29;95848.22;;;36.19;16.93
73383;BME280;61600;48.126;11.542;2022-07-19T12:46:55;95841.56;;;36.26;17.78
73383;BME280;61600;48.126;11.542;2022-07-19T12:49:22;95837.13;;;36.25;18.07
73383;BME280;61600;48.126;11.542;2022-07-19T12:51:48;95837.50;;;36.27;18.12
73383;BME280;61600;48.126;11.542;2022-07-19T12:54:13;95837.78;;;36.45;17.51
73383;BME280;61600;48.126;11.542;2022-07-19T12:56:39;95840.69;;;36.70;17.33
73383;BME280;61600;48.126;11.542;2022-07-19T12:59:08;95830.81;;;36.75;17.39
73383;BME280;61600;48.126;11.542;2022-07-19T13:01:53;95836.19;;;36.85;17.08
73383;BME280;61600;48.126;11.542;2022-07-19T13:04:19;95841.22;;;37.19;16.91
73383;BME280;61600;48.126;11.542;2022-07-19T13:06:47;95826.00;;;37.38;16.93
73383;BME280;61600;48.126;11.542;2022-07-19T13:09:13;95824.88;;;37.48;16.37
73383;BME280;61600;48.126;11.542;2022-07-19T13:11:39;95828.16;;;37.34;16.48
73383;BME280;61600;48.126;11.542;2022-07-19T13:14:05;95822.34;;;37.00;16.41